Schedule Details


Flight Number: CTN663
Departure: Cilipi (LDDU) at 12:35
Arrival: Franjo Tudman (LDZA) at 13:40
Route: MADOS L187 VRANA UL187 KOMAR L187 TEBLI

Weather Information
LDDU 191000Z 17008KT 140V210 9999 FEW023 BKN050 13/08 Q1019 BECMG 14008KT
LDZA 191000Z 12004KT 070V170 CAVOK 09/02 Q1021 NOSIG
Schedule Frequency

Route Map